createdAt,value
2022-11-16T00:01:30.366Z,-0.43
2022-11-16T00:06:51.703Z,-0.49
2022-11-16T00:12:13.419Z,-0.42
2022-11-16T00:17:34.654Z,-0.33
2022-11-16T00:22:56.122Z,-0.28
2022-11-16T00:28:17.757Z,-0.22
2022-11-16T00:33:39.906Z,-0.31
2022-11-16T00:39:01.151Z,-0.33
2022-11-16T00:44:22.963Z,-0.28
2022-11-16T00:49:44.569Z,-0.16
2022-11-16T00:55:06.805Z,-0.17
2022-11-16T01:00:28.347Z,-0.02
2022-11-16T01:05:50.229Z,-0.02
2022-11-16T01:11:52.793Z,0.10
2022-11-16T01:17:15.575Z,0.11
2022-11-16T01:22:38.552Z,0.07
2022-11-16T01:28:00.059Z,-0.05
2022-11-16T01:33:33.411Z,-0.15
2022-11-16T01:38:54.927Z,-0.26
2022-11-16T01:44:32.136Z,-0.34
2022-11-16T01:50:13.559Z,-0.40
2022-11-16T01:55:38.638Z,-0.46
2022-11-16T02:01:08.453Z,-0.38
2022-11-16T02:07:14.945Z,-0.33
2022-11-16T02:13:02.885Z,-0.36
2022-11-16T02:18:50.567Z,-0.32
2022-11-16T02:24:41.480Z,-0.17
2022-11-16T02:30:05.249Z,-0.15
2022-11-16T02:35:30.249Z,-0.17
2022-11-16T02:41:00.999Z,-0.10
2022-11-16T02:46:29.588Z,0.07
2022-11-16T02:51:53.116Z,0.16
2022-11-16T02:57:38.702Z,0.04
2022-11-16T03:03:12.121Z,0.01
2022-11-16T03:08:36.334Z,-0.08
2022-11-16T03:14:04.036Z,-0.12
2022-11-16T03:19:35.141Z,-0.22
2022-11-16T03:24:56.846Z,-0.19
2022-11-16T03:30:23.567Z,-0.12
2022-11-16T03:36:04.067Z,-0.03
2022-11-16T03:41:30.135Z,0.09
2022-11-16T03:46:51.845Z,0.05
2022-11-16T03:52:15.798Z,0.03
2022-11-16T03:57:37.879Z,0.16
2022-11-16T04:02:59.336Z,0.12
2022-11-16T04:08:39.413Z,0.15
2022-11-16T04:14:20.339Z,0.14
2022-11-16T04:20:20.205Z,0.26
2022-11-16T04:25:43.969Z,0.43
2022-11-16T04:31:32.194Z,0.47
2022-11-16T04:37:19.236Z,0.54
2022-11-16T04:42:42.671Z,0.65
2022-11-16T04:48:04.891Z,0.65
2022-11-16T04:53:28.560Z,0.76
2022-11-16T04:59:00.037Z,0.87
2022-11-16T05:04:22.401Z,0.84
2022-11-16T05:09:46.763Z,0.84
2022-11-16T05:15:09.524Z,0.90
2022-11-16T05:20:49.478Z,0.97
2022-11-16T05:26:11.123Z,1.02
2022-11-16T05:31:39.095Z,0.99
2022-11-16T05:37:03.346Z,1.04
2022-11-16T05:42:25.506Z,1.06
2022-11-16T05:47:47.823Z,1.18
2022-11-16T05:53:10.734Z,1.22
2022-11-16T05:58:33.779Z,1.40
2022-11-16T06:03:56.201Z,1.45
2022-11-16T06:09:18.196Z,1.58
2022-11-16T06:14:40.482Z,1.47
2022-11-16T06:20:02.849Z,1.59
2022-11-16T06:25:24.827Z,1.80
2022-11-16T06:30:47.802Z,1.85
2022-11-16T06:36:09.391Z,1.89
2022-11-16T06:41:32.999Z,1.88
2022-11-16T06:46:54.956Z,1.92
2022-11-16T06:52:17.436Z,2.22
2022-11-16T06:57:39.205Z,2.12
2022-11-16T07:03:03.655Z,2.32
2022-11-16T07:08:27.962Z,2.50
2022-11-16T07:13:51.067Z,2.42
2022-11-16T07:19:13.036Z,2.50
2022-11-16T07:24:35.802Z,2.77
2022-11-16T07:29:57.894Z,2.89
2022-11-16T07:35:40.195Z,2.93
2022-11-16T07:41:03.152Z,3.11
2022-11-16T07:46:46.135Z,3.19
2022-11-16T07:52:12.063Z,3.27
2022-11-16T07:57:54.238Z,3.25
2022-11-16T08:03:21.790Z,3.23
2022-11-16T08:08:46.532Z,3.20
2022-11-16T08:14:09.044Z,3.09
2022-11-16T08:19:30.942Z,3.14
2022-11-16T08:24:53.290Z,3.16
2022-11-16T08:30:14.844Z,3.35
2022-11-16T08:35:38.511Z,3.37
2022-11-16T08:41:00.406Z,3.20
2022-11-16T08:46:23.169Z,3.39
2022-11-16T08:57:37.093Z,3.37
2022-11-16T09:03:03.609Z,3.12
2022-11-16T09:08:25.009Z,3.01
2022-11-16T09:13:47.757Z,2.84
2022-11-16T09:19:08.908Z,2.70
2022-11-16T09:24:30.406Z,2.70
2022-11-16T09:29:51.945Z,2.99
2022-11-16T09:35:13.477Z,2.89
2022-11-16T09:46:29.888Z,2.95
2022-11-16T09:52:01.079Z,2.90
2022-11-16T09:57:29.440Z,3.07
2022-11-16T10:03:01.497Z,2.82
2022-11-16T10:09:00.337Z,2.98
2022-11-16T10:14:47.261Z,3.14
2022-11-16T10:20:30.623Z,2.87
2022-11-16T10:26:20.476Z,2.71
2022-11-16T10:31:56.905Z,2.84
2022-11-16T10:37:18.376Z,2.71
2022-11-16T10:42:39.958Z,2.50
2022-11-16T10:48:14.706Z,2.46
2022-11-16T10:53:41.937Z,2.51
2022-11-16T10:59:05.969Z,2.42
2022-11-16T11:04:32.761Z,2.64
2022-11-16T11:09:55.006Z,2.60
2022-11-16T11:15:26.304Z,2.79
2022-11-16T11:20:51.558Z,2.97
2022-11-16T11:26:33.112Z,2.76
2022-11-16T11:32:16.883Z,2.44
2022-11-16T11:37:41.096Z,2.33
2022-11-16T11:43:06.201Z,2.30
2022-11-16T11:48:49.935Z,1.90
2022-11-16T11:54:25.247Z,1.79
2022-11-16T11:59:47.403Z,1.74
2022-11-16T12:05:45.896Z,1.68
2022-11-16T12:11:32.793Z,1.63
2022-11-16T12:17:03.440Z,1.50
2022-11-16T12:22:53.328Z,1.52
2022-11-16T12:28:39.633Z,1.30
2022-11-16T12:34:44.385Z,0.62
2022-11-16T12:40:35.077Z,0.61
2022-11-16T12:46:05.309Z,0.72
2022-11-16T12:51:44.922Z,0.78
2022-11-16T12:57:12.209Z,0.79
2022-11-16T13:02:39.557Z,0.73
2022-11-16T13:08:16.183Z,0.49
2022-11-16T13:13:39.402Z,0.13
2022-11-16T13:19:02.839Z,0.28
2022-11-16T13:24:44.138Z,0.25
2022-11-16T13:30:14.883Z,-0.06
2022-11-16T13:35:38.280Z,-0.11
2022-11-16T13:41:41.292Z,-0.22
2022-11-16T13:47:30.692Z,-0.17
2022-11-16T13:58:49.716Z,0.01
2022-11-16T14:04:40.292Z,-0.19
2022-11-16T14:10:05.835Z,-0.50
2022-11-16T14:15:28.833Z,-0.47
2022-11-16T14:21:09.222Z,-0.69
2022-11-16T14:26:56.544Z,-0.77
2022-11-16T14:32:37.009Z,-0.68
2022-11-16T14:38:26.797Z,-0.60
2022-11-16T14:43:53.445Z,-0.57
2022-11-16T14:49:17.303Z,-0.41
2022-11-16T14:54:50.451Z,-0.44
2022-11-16T15:00:25.082Z,-0.44
2022-11-16T15:05:47.030Z,-0.51
2022-11-16T15:11:20.936Z,-0.58
2022-11-16T15:16:50.253Z,-0.61
2022-11-16T15:22:18.598Z,-0.64
2022-11-16T15:27:43.557Z,-0.76
2022-11-16T15:33:36.949Z,-0.90
2022-11-16T15:39:01.220Z,-0.87
2022-11-16T15:44:23.934Z,-0.88
2022-11-16T15:49:49.927Z,-0.94
2022-11-16T15:55:38.858Z,-1.17
2022-11-16T16:01:00.758Z,-1.26
2022-11-16T16:06:45.656Z,-1.13
2022-11-16T16:12:19.901Z,-1.02
2022-11-16T16:17:46.877Z,-1.05
2022-11-16T16:23:15.360Z,-1.24
2022-11-16T16:28:37.556Z,-1.14
2022-11-16T16:33:59.739Z,-1.12
2022-11-16T16:39:21.602Z,-1.36
2022-11-16T16:44:44.266Z,-1.55
2022-11-16T16:50:06.295Z,-1.49
2022-11-16T16:55:28.941Z,-1.52
2022-11-16T17:00:51.172Z,-1.56
2022-11-16T17:06:13.039Z,-1.57
2022-11-16T17:11:34.760Z,-1.63
2022-11-16T17:16:56.293Z,-1.50
2022-11-16T17:22:19.363Z,-1.45
2022-11-16T17:27:40.924Z,-1.46
2022-11-16T17:33:02.836Z,-1.36
2022-11-16T17:38:24.488Z,-1.37
2022-11-16T17:43:47.755Z,-1.35
2022-11-16T17:49:09.357Z,-1.49
2022-11-16T17:54:31.157Z,-1.64
2022-11-16T17:59:52.605Z,-1.72
2022-11-16T18:05:14.317Z,-1.79
2022-11-16T18:10:39.343Z,-1.78
2022-11-16T18:16:10.182Z,-1.78
2022-11-16T18:21:33.964Z,-1.78
2022-11-16T18:26:56.073Z,-1.77
2022-11-16T18:32:17.605Z,-1.82
2022-11-16T18:37:38.848Z,-1.79
2022-11-16T18:43:00.351Z,-1.81
2022-11-16T18:48:21.813Z,-1.73
2022-11-16T18:53:43.717Z,-1.63
2022-11-16T18:59:05.421Z,-1.67
2022-11-16T19:04:28.660Z,-1.71
2022-11-16T19:09:49.981Z,-1.68
2022-11-16T19:15:11.681Z,-1.72
2022-11-16T19:20:33.744Z,-1.68
2022-11-16T19:26:04.962Z,-1.73
2022-11-16T19:31:29.038Z,-1.79
2022-11-16T19:36:50.546Z,-1.79
2022-11-16T19:42:12.022Z,-1.93
2022-11-16T19:47:33.900Z,-1.85
2022-11-16T19:52:56.180Z,-1.92
2022-11-16T19:58:17.419Z,-1.80
2022-11-16T20:03:40.629Z,-1.79
2022-11-16T20:09:08.862Z,-1.96
2022-11-16T20:14:30.188Z,-1.80
2022-11-16T20:19:51.716Z,-1.78
2022-11-16T20:25:13.809Z,-1.96
2022-11-16T20:30:35.193Z,-2.14
2022-11-16T20:36:01.881Z,-2.14
2022-11-16T20:41:27.183Z,-2.21
2022-11-16T20:46:49.230Z,-2.21
2022-11-16T20:52:10.579Z,-2.22
2022-11-16T20:57:32.073Z,-2.23
2022-11-16T21:02:53.269Z,-2.33
2022-11-16T21:08:14.467Z,-2.33
2022-11-16T21:13:54.085Z,-2.47
2022-11-16T21:19:16.044Z,-2.47
2022-11-16T21:24:37.350Z,-2.44
2022-11-16T21:29:58.655Z,-2.27
2022-11-16T21:35:21.144Z,-2.44
2022-11-16T21:40:42.366Z,-2.52
2022-11-16T21:46:08.659Z,-2.41
2022-11-16T21:51:31.040Z,-2.39
2022-11-16T21:56:52.241Z,-2.51
2022-11-16T22:02:14.915Z,-2.62
2022-11-16T22:07:38.788Z,-2.57
2022-11-16T22:13:00.025Z,-2.59
2022-11-16T22:18:21.758Z,-2.62
2022-11-16T22:23:43.343Z,-2.68
2022-11-16T22:29:04.794Z,-2.68
2022-11-16T22:34:26.389Z,-2.76
2022-11-16T22:39:47.790Z,-2.75
2022-11-16T22:45:09.935Z,-2.74
2022-11-16T22:50:31.153Z,-2.75
2022-11-16T22:55:52.497Z,-2.75
2022-11-16T23:01:13.976Z,-2.73
2022-11-16T23:06:35.548Z,-2.74
2022-11-16T23:12:15.716Z,-2.79
2022-11-16T23:17:37.203Z,-2.77
2022-11-16T23:23:17.093Z,-2.74
2022-11-16T23:28:39.092Z,-2.65
2022-11-16T23:34:00.352Z,-2.66
2022-11-16T23:39:21.583Z,-2.65
2022-11-16T23:44:43.032Z,-2.64
2022-11-16T23:50:04.752Z,-2.74
2022-11-16T23:55:26.870Z,-2.83
